Time;durP1;ratioP1;P1;durP2;ratioP2;P2;SDS_P1;SDS_P2;PMS_P1;PMS_P2;Temp;Humidity;BMP_temperature;BMP_pressure;BME280_temperature;BME280_humidity;BME280_pressure;Samples;Min_cycle;Max_cycle;Signal;HPM_P1;HPM_P2
2021/03/23 00:00:34;;;;;;;12.60;8.20;;;;;;;;;;5096047;28;20241;-53
2021/03/23 00:03:01;;;;;;;10.27;7.65;;;;;;;;;;5094072;28;20238;-53
2021/03/23 00:05:28;;;;;;;12.07;8.27;;;;;;;;;;5095810;28;20192;-53
2021/03/23 00:07:55;;;;;;;9.85;7.32;;;;;;;;;;5095443;28;20196;-57
2021/03/23 00:10:24;;;;;;;15.75;8.88;;;;;;;;;;5092994;28;20242;-52
2021/03/23 00:12:51;;;;;;;13.27;8.57;;;;;;;;;;5094296;28;20244;-52
2021/03/23 00:15:25;;;;;;;16.17;8.88;;;;;;;;;;5093228;28;20225;-53
2021/03/23 00:17:53;;;;;;;13.30;9.32;;;;;;;;;;5094087;28;20189;-51
2021/03/23 00:20:21;;;;;;;13.10;8.93;;;;;;;;;;5093788;28;20265;-54
2021/03/23 00:22:48;;;;;;;11.38;8.82;;;;;;;;;;5093790;28;20202;-52
2021/03/23 00:25:16;;;;;;;11.80;8.80;;;;;;;;;;5093508;28;20243;-54
2021/03/23 00:27:43;;;;;;;14.77;10.60;;;;;;;;;;5096359;28;20271;-49
2021/03/23 00:30:12;;;;;;;11.70;8.77;;;;;;;;;;5096055;28;20228;-48
2021/03/23 00:32:39;;;;;;;12.43;10.18;;;;;;;;;;5096552;28;20201;-48
2021/03/23 00:35:08;;;;;;;11.75;8.30;;;;;;;;;;5096130;28;20292;-48
2021/03/23 00:37:35;;;;;;;14.90;9.57;;;;;;;;;;5095743;28;20209;-50
2021/03/23 00:40:03;;;;;;;14.73;9.80;;;;;;;;;;5095831;28;20217;-52
2021/03/23 00:42:29;;;;;;;11.50;9.32;;;;;;;;;;5096184;28;20194;-49
2021/03/23 00:45:13;;;;;;;12.63;9.77;;;;;;;;;;5096134;28;20458;-58
2021/03/23 00:47:40;;;;;;;12.45;9.93;;;;;;;;;;5099720;28;20208;-51
2021/03/23 00:50:08;;;;;;;12.02;9.35;;;;;;;;;;5099650;28;20229;-52
2021/03/23 00:52:34;;;;;;;13.30;9.88;;;;;;;;;;5099406;28;20268;-53
2021/03/23 00:55:01;;;;;;;13.88;10.52;;;;;;;;;;5099787;28;20185;-51
2021/03/23 00:57:38;;;;;;;13.85;10.38;;;;;;;;;;5099420;28;20196;-50
2021/03/23 01:00:07;;;;;;;18.77;11.50;;;;;;;;;;5099890;28;20205;-50
2021/03/23 01:02:34;;;;;;;19.70;10.80;;;;;;;;;;5099392;28;20249;-55
2021/03/23 01:05:01;;;;;;;13.13;9.32;;;;;;;;;;5099120;28;20210;-52
2021/03/23 01:07:28;;;;;;;22.52;15.30;;;;;;;;;;5099391;28;20216;-52
2021/03/23 01:09:57;;;;;;;17.60;10.95;;;;;;;;;;5099706;28;20198;-53
2021/03/23 01:12:24;;;;;;;17.58;10.90;;;;;;;;;;5099600;28;20202;-52
2021/03/23 01:14:50;;;;;;;15.65;10.23;;;;;;;;;;5099288;28;20213;-56
2021/03/23 01:17:17;;;;;;;16.92;11.85;;;;;;;;;;5099153;28;20210;-51
2021/03/23 01:19:47;;;;;;;16.42;10.57;;;;;;;;;;5099388;28;20232;-50
2021/03/23 01:22:14;;;;;;;14.10;11.95;;;;;;;;;;5099395;28;20175;-53
2021/03/23 01:24:41;;;;;;;20.33;15.55;;;;;;;;;;5099114;28;20190;-56
2021/03/23 01:27:08;;;;;;;42.28;29.13;;;;;;;;;;5099089;28;20259;-52
2021/03/23 01:29:40;;;;;;;16.95;12.15;;;;;;;;;;5099385;28;20190;-54
2021/03/23 01:32:07;;;;;;;21.80;15.38;;;;;;;;;;5098615;28;20234;-55
2021/03/23 01:34:34;;;;;;;19.73;12.57;;;;;;;;;;5099482;28;20228;-57
2021/03/23 01:37:02;;;;;;;15.15;11.85;;;;;;;;;;5098872;28;20178;-55
2021/03/23 01:39:29;;;;;;;23.42;12.25;;;;;;;;;;5098898;28;20193;-49
2021/03/23 01:41:56;;;;;;;18.38;12.38;;;;;;;;;;5097340;28;20236;-54
2021/03/23 01:44:40;;;;;;;23.38;11.73;;;;;;;;;;5098075;28;20202;-52
2021/03/23 01:47:07;;;;;;;15.55;12.15;;;;;;;;;;5096715;28;20244;-54
2021/03/23 01:49:35;;;;;;;15.40;11.55;;;;;;;;;;5098514;28;20194;-51
2021/03/23 01:52:10;;;;;;;17.25;12.35;;;;;;;;;;5098801;28;20237;-50
2021/03/23 01:54:40;;;;;;;20.23;13.05;;;;;;;;;;5097135;28;20252;-58
2021/03/23 01:57:09;;;;;;;20.27;14.50;;;;;;;;;;5098641;28;20194;-51
2021/03/23 01:59:45;;;;;;;18.20;12.48;;;;;;;;;;5097760;28;20213;-50
2021/03/23 02:02:12;;;;;;;19.58;13.40;;;;;;;;;;5097413;28;20193;-55
2021/03/23 02:04:39;;;;;;;19.75;13.70;;;;;;;;;;5098290;28;20174;-54
2021/03/23 02:07:17;;;;;;;18.70;12.57;;;;;;;;;;5097864;28;20212;-51
2021/03/23 02:09:45;;;;;;;22.10;14.40;;;;;;;;;;5096882;28;20283;-54
2021/03/23 02:12:13;;;;;;;20.58;14.57;;;;;;;;;;5097604;28;20226;-52
2021/03/23 02:14:45;;;;;;;21.27;15.05;;;;;;;;;;5098721;28;20216;-50
2021/03/23 02:17:17;;;;;;;21.95;15.10;;;;;;;;;;5097799;28;20190;-52
2021/03/23 02:19:44;;;;;;;20.73;13.32;;;;;;;;;;5098121;28;20233;-49
2021/03/23 02:22:15;;;;;;;21.60;15.40;;;;;;;;;;5097677;28;20198;-51
2021/03/23 02:24:44;;;;;;;23.75;15.18;;;;;;;;;;5097803;28;20257;-53
2021/03/23 02:27:11;;;;;;;28.08;16.00;;;;;;;;;;5098297;28;20250;-48
2021/03/23 02:29:38;;;;;;;20.45;15.27;;;;;;;;;;5097973;28;20193;-51
2021/03/23 02:32:05;;;;;;;22.63;15.30;;;;;;;;;;5098285;28;20225;-52
2021/03/23 02:34:37;;;;;;;25.23;17.85;;;;;;;;;;5098484;28;20205;-54
2021/03/23 02:37:04;;;;;;;26.85;17.58;;;;;;;;;;5098762;28;20232;-50
2021/03/23 02:39:36;;;;;;;31.33;19.45;;;;;;;;;;5097803;28;20190;-54
2021/03/23 02:42:09;;;;;;;24.17;18.30;;;;;;;;;;5098475;28;20201;-57
2021/03/23 02:44:40;;;;;;;28.33;18.52;;;;;;;;;;5096927;28;20260;-56
2021/03/23 02:47:07;;;;;;;27.95;18.70;;;;;;;;;;5097905;28;20224;-55
2021/03/23 02:50:07;;;;;;;29.92;18.30;;;;;;;;;;5098256;28;20194;-51
2021/03/23 02:52:35;;;;;;;28.60;18.15;;;;;;;;;;5095984;28;20213;-51
2021/03/23 02:55:02;;;;;;;24.15;16.85;;;;;;;;;;5080052;28;20217;-53
2021/03/23 02:57:29;;;;;;;28.58;18.88;;;;;;;;;;5097163;28;20337;-51
2021/03/23 02:59:56;;;;;;;29.15;19.17;;;;;;;;;;5098192;28;20186;-56
2021/03/23 03:02:25;;;;;;;25.33;17.52;;;;;;;;;;5097933;28;20300;-52
2021/03/23 03:04:52;;;;;;;29.30;19.52;;;;;;;;;;5097097;28;20224;-54
2021/03/23 03:07:19;;;;;;;27.33;19.85;;;;;;;;;;5097749;28;20205;-58
2021/03/23 03:10:05;;;;;;;27.17;19.10;;;;;;;;;;5097121;28;20288;-48
2021/03/23 03:12:32;;;;;;;31.23;20.00;;;;;;;;;;5097444;28;20201;-53
2021/03/23 03:14:58;;;;;;;34.42;20.15;;;;;;;;;;5098001;28;20170;-49
2021/03/23 03:17:44;;;;;;;29.83;19.92;;;;;;;;;;5098361;28;20202;-56
2021/03/23 03:20:12;;;;;;;29.67;20.08;;;;;;;;;;5097820;28;20190;-53
2021/03/23 03:22:39;;;;;;;36.95;21.30;;;;;;;;;;5097679;28;20233;-52
2021/03/23 03:25:08;;;;;;;38.45;20.02;;;;;;;;;;5097647;28;20210;-51
2021/03/23 03:27:34;;;;;;;30.70;19.40;;;;;;;;;;5097538;28;20198;-55
2021/03/23 03:33:06;;;;;;;31.02;20.50;;;;;;;;;;5095504;28;20216;-51
2021/03/23 03:35:37;;;;;;;27.38;19.08;;;;;;;;;;5097517;28;20200;-57
2021/03/23 03:38:05;;;;;;;31.83;22.40;;;;;;;;;;5097623;28;20197;-53
2021/03/23 03:40:36;;;;;;;32.03;20.13;;;;;;;;;;5096693;28;20191;-52
2021/03/23 03:43:05;;;;;;;27.15;19.48;;;;;;;;;;5097686;28;20210;-52
2021/03/23 03:48:30;;;;;;;34.10;21.95;;;;;;;;;;5095579;28;20252;-55
2021/03/23 03:50:57;;;;;;;33.88;22.95;;;;;;;;;;5097134;28;20229;-50
2021/03/23 03:53:32;;;;;;;27.00;19.55;;;;;;;;;;5097016;28;20190;-50
2021/03/23 03:56:00;;;;;;;26.73;21.30;;;;;;;;;;5096472;28;20196;-52
2021/03/23 03:58:26;;;;;;;26.85;18.70;;;;;;;;;;5096965;28;20608;-56
2021/03/23 04:00:57;;;;;;;38.53;22.85;;;;;;;;;;5096284;28;20174;-55
2021/03/23 04:03:25;;;;;;;30.52;22.05;;;;;;;;;;5096250;28;20245;-50
2021/03/23 04:05:52;;;;;;;32.45;22.90;;;;;;;;;;5096334;28;20185;-50
2021/03/23 04:08:21;;;;;;;32.08;22.08;;;;;;;;;;5096950;28;20190;-51
2021/03/23 04:10:48;;;;;;;37.20;24.35;;;;;;;;;;5096710;28;20214;-53
2021/03/23 04:13:16;;;;;;;31.67;22.33;;;;;;;;;;5096839;28;20171;-53
2021/03/23 04:18:46;;;;;;;35.55;21.42;;;;;;;;;;5096473;28;20261;-52
2021/03/23 04:21:13;;;;;;;30.55;20.38;;;;;;;;;;5095898;28;20189;-55
2021/03/23 04:23:43;;;;;;;31.95;21.58;;;;;;;;;;5096461;28;20310;-54
2021/03/23 04:26:11;;;;;;;29.92;21.45;;;;;;;;;;5095075;28;20198;-56
2021/03/23 04:28:39;;;;;;;36.90;24.52;;;;;;;;;;5096213;28;20190;-53
2021/03/23 04:31:18;;;;;;;32.40;22.13;;;;;;;;;;5096072;28;20230;-55
2021/03/23 04:33:45;;;;;;;38.22;21.60;;;;;;;;;;5096340;28;20198;-54
2021/03/23 04:36:12;;;;;;;36.60;24.85;;;;;;;;;;5095602;28;20194;-59
2021/03/23 04:38:56;;;;;;;36.42;23.88;;;;;;;;;;5096071;28;20197;-51
2021/03/23 04:41:23;;;;;;;36.83;23.75;;;;;;;;;;5096003;28;20202;-50
2021/03/23 04:43:51;;;;;;;36.63;22.98;;;;;;;;;;5078986;28;20190;-50
2021/03/23 04:46:24;;;;;;;41.50;24.20;;;;;;;;;;5094801;28;20177;-51
2021/03/23 04:48:51;;;;;;;33.92;22.25;;;;;;;;;;5075449;28;20221;-55
2021/03/23 04:51:19;;;;;;;37.85;23.70;;;;;;;;;;5075724;28;20420;-54
2021/03/23 04:53:57;;;;;;;31.33;21.77;;;;;;;;;;5075829;28;20195;-50
2021/03/23 04:56:30;;;;;;;36.42;23.15;;;;;;;;;;5075781;28;20190;-52
2021/03/23 05:01:57;;;;;;;37.90;23.55;;;;;;;;;;5057884;28;20213;-51
2021/03/23 05:04:34;;;;;;;31.75;21.27;;;;;;;;;;5077027;28;20203;-53
2021/03/23 05:07:02;;;;;;;36.03;23.05;;;;;;;;;;5085980;28;20213;-53
2021/03/23 05:09:29;;;;;;;32.90;22.38;;;;;;;;;;5079133;28;20208;-52
2021/03/23 05:15:01;;;;;;;36.35;22.08;;;;;;;;;;5096069;28;20196;-57
2021/03/23 05:17:28;;;;;;;37.00;23.08;;;;;;;;;;5095209;28;20209;-52
2021/03/23 05:20:21;;;;;;;35.30;21.65;;;;;;;;;;5096099;28;20190;-59
2021/03/23 05:22:49;;;;;;;37.72;22.58;;;;;;;;;;5097820;28;20186;-52
2021/03/23 05:25:16;;;;;;;35.80;20.85;;;;;;;;;;5116667;28;20207;-51
2021/03/23 05:27:44;;;;;;;38.00;23.00;;;;;;;;;;5115754;28;20200;-56
2021/03/23 05:30:13;;;;;;;40.08;22.20;;;;;;;;;;5116255;28;20193;-52
2021/03/23 05:32:39;;;;;;;35.83;22.95;;;;;;;;;;5118863;28;20180;-53
2021/03/23 05:35:11;;;;;;;30.88;21.50;;;;;;;;;;5120219;28;20197;-53
2021/03/23 05:37:37;;;;;;;33.63;20.08;;;;;;;;;;5119884;28;20554;-50
2021/03/23 05:40:05;;;;;;;32.78;21.77;;;;;;;;;;5119040;28;20212;-50
2021/03/23 05:45:41;;;;;;;35.60;21.55;;;;;;;;;;5110053;28;20220;-57
2021/03/23 05:48:19;;;;;;;32.88;21.60;;;;;;;;;;5119499;28;20197;-58
2021/03/23 05:51:02;;;;;;;37.10;22.27;;;;;;;;;;5137849;28;20235;-59
2021/03/23 05:53:42;;;;;;;32.60;21.85;;;;;;;;;;5111635;28;20203;-56
2021/03/23 05:56:09;;;;;;;37.17;20.90;;;;;;;;;;5104704;28;20181;-55
2021/03/23 05:58:40;;;;;;;34.88;21.00;;;;;;;;;;5119347;28;20197;-53
2021/03/23 06:01:32;;;;;;;30.83;20.45;;;;;;;;;;5118832;28;20182;-55
2021/03/23 06:04:05;;;;;;;33.58;21.58;;;;;;;;;;5106780;28;20189;-53
2021/03/23 06:06:38;;;;;;;36.83;21.80;;;;;;;;;;5098420;28;20202;-54
2021/03/23 06:09:09;;;;;;;31.35;20.17;;;;;;;;;;5111024;28;20572;-56
2021/03/23 06:11:48;;;;;;;35.40;21.63;;;;;;;;;;5118734;28;20221;-56
2021/03/23 06:14:45;;;;;;;37.33;23.27;;;;;;;;;;5098416;28;20236;-55
2021/03/23 06:17:15;;;;;;;30.45;19.58;;;;;;;;;;5119084;28;20189;-59
2021/03/23 06:19:45;;;;;;;36.70;20.02;;;;;;;;;;5118679;28;20197;-51
2021/03/23 06:22:36;;;;;;;35.10;23.20;;;;;;;;;;5111477;28;20197;-58
2021/03/23 06:25:08;;;;;;;33.58;20.27;;;;;;;;;;5099016;28;20253;-55
2021/03/23 06:27:47;;;;;;;35.83;20.55;;;;;;;;;;5109887;28;20185;-54
2021/03/23 06:30:35;;;;;;;34.63;20.80;;;;;;;;;;5117945;28;20240;-52
2021/03/23 06:33:03;;;;;;;39.20;21.98;;;;;;;;;;5117781;28;20319;-53
2021/03/23 06:38:36;;;;;;;35.08;21.88;;;;;;;;;;5116281;28;20223;-49
2021/03/23 06:41:18;;;;;;;33.53;21.42;;;;;;;;;;5117544;28;20212;-50
2021/03/23 06:44:21;;;;;;;34.13;21.13;;;;;;;;;;5114471;28;20191;-53
2021/03/23 06:46:49;;;;;;;27.25;20.10;;;;;;;;;;5113682;28;20237;-55
2021/03/23 06:49:25;;;;;;;32.97;21.35;;;;;;;;;;5107735;28;20201;-57
2021/03/23 06:52:16;;;;;;;37.95;21.50;;;;;;;;;;5115386;28;20220;-55
2021/03/23 06:54:44;;;;;;;30.40;20.63;;;;;;;;;;5117113;28;20181;-57
2021/03/23 06:57:18;;;;;;;29.40;20.08;;;;;;;;;;5116358;28;20190;-54
2021/03/23 06:59:52;;;;;;;29.98;20.38;;;;;;;;;;5127110;28;20188;-51
2021/03/23 07:02:35;;;;;;;33.03;19.85;;;;;;;;;;5126374;28;20204;-57
2021/03/23 07:05:23;;;;;;;32.60;19.25;;;;;;;;;;5116503;28;20216;-56
2021/03/23 07:07:51;;;;;;;31.40;20.65;;;;;;;;;;5117199;28;20253;-53
2021/03/23 07:10:22;;;;;;;34.85;22.65;;;;;;;;;;5096435;28;20220;-52
2021/03/23 07:13:05;;;;;;;30.90;20.67;;;;;;;;;;5116941;28;20201;-53
2021/03/23 07:15:34;;;;;;;30.38;19.65;;;;;;;;;;5116299;28;20228;-54
2021/03/23 07:18:11;;;;;;;37.65;20.55;;;;;;;;;;5116670;28;20201;-56
2021/03/23 07:20:44;;;;;;;32.67;20.45;;;;;;;;;;5116454;28;20181;-56
2021/03/23 07:23:29;;;;;;;32.03;20.92;;;;;;;;;;5116604;28;20196;-50
2021/03/23 07:26:13;;;;;;;30.10;20.40;;;;;;;;;;5115094;28;20193;-57
2021/03/23 07:28:42;;;;;;;34.67;22.00;;;;;;;;;;5100872;28;20223;-57
2021/03/23 07:31:16;;;;;;;30.52;20.00;;;;;;;;;;5116076;28;20268;-50
2021/03/23 07:33:57;;;;;;;28.20;20.50;;;;;;;;;;5116053;28;20201;-57
2021/03/23 07:36:27;;;;;;;33.17;19.80;;;;;;;;;;5116753;28;20225;-58
2021/03/23 07:39:25;;;;;;;33.40;21.10;;;;;;;;;;5116009;28;20488;-50
2021/03/23 07:41:57;;;;;;;29.92;20.20;;;;;;;;;;5115868;28;20447;-52
2021/03/23 07:44:30;;;;;;;34.33;22.40;;;;;;;;;;5116347;28;20216;-52
2021/03/23 07:47:30;;;;;;;34.70;21.00;;;;;;;;;;5104259;28;20225;-58
2021/03/23 07:50:00;;;;;;;36.10;22.50;;;;;;;;;;5116746;28;20213;-56
2021/03/23 07:52:35;;;;;;;41.13;22.48;;;;;;;;;;5133513;28;20478;-51
2021/03/23 07:55:19;;;;;;;40.40;21.13;;;;;;;;;;5129845;28;20510;-57
2021/03/23 07:58:02;;;;;;;40.50;21.40;;;;;;;;;;5115833;28;20451;-57
2021/03/23 08:00:57;;;;;;;38.63;22.08;;;;;;;;;;5098779;28;20276;-59
2021/03/23 08:03:43;;;;;;;31.13;20.00;;;;;;;;;;5115516;28;20251;-57
2021/03/23 08:06:19;;;;;;;32.08;19.45;;;;;;;;;;5114975;28;20496;-56
2021/03/23 08:08:52;;;;;;;26.98;19.13;;;;;;;;;;5115348;28;20211;-56
2021/03/23 08:11:23;;;;;;;25.88;18.88;;;;;;;;;;5115459;28;20213;-57
2021/03/23 08:14:13;;;;;;;30.73;18.93;;;;;;;;;;5114773;28;20489;-57
2021/03/23 08:16:53;;;;;;;32.27;18.83;;;;;;;;;;5113081;28;20470;-51
2021/03/23 08:19:31;;;;;;;40.00;20.20;;;;;;;;;;5115482;28;20478;-54
2021/03/23 08:22:25;;;;;;;29.95;18.75;;;;;;;;;;5114881;28;20462;-53
2021/03/23 08:25:02;;;;;;;27.05;20.08;;;;;;;;;;5116001;28;20232;-54
2021/03/23 08:27:44;;;;;;;23.00;16.17;;;;;;;;;;5114986;28;20201;-50
2021/03/23 08:30:16;;;;;;;32.90;18.88;;;;;;;;;;5101755;28;20485;-54
2021/03/23 08:32:53;;;;;;;27.17;17.63;;;;;;;;;;5114809;28;20224;-56
2021/03/23 08:35:37;;;;;;;25.57;18.10;;;;;;;;;;5115383;28;20201;-54
2021/03/23 08:38:31;;;;;;;25.83;19.60;;;;;;;;;;5114246;28;20454;-54
2021/03/23 08:41:03;;;;;;;26.50;18.23;;;;;;;;;;5114879;28;20523;-52
2021/03/23 08:43:36;;;;;;;25.80;17.83;;;;;;;;;;5114400;28;20495;-49
2021/03/23 08:46:09;;;;;;;26.30;19.13;;;;;;;;;;5114093;28;20436;-56
2021/03/23 08:48:39;;;;;;;29.90;18.80;;;;;;;;;;5115187;28;20461;-55
2021/03/23 08:51:20;;;;;;;31.73;18.43;;;;;;;;;;5113871;28;20471;-51
2021/03/23 08:53:48;;;;;;;26.33;17.20;;;;;;;;;;5113840;28;20498;-50
2021/03/23 08:56:15;;;;;;;26.27;17.83;;;;;;;;;;5114377;28;20455;-52
2021/03/23 08:58:50;;;;;;;28.30;17.10;;;;;;;;;;5115239;28;20474;-56
2021/03/23 09:01:37;;;;;;;27.97;17.30;;;;;;;;;;5114863;28;20450;-55
2021/03/23 09:04:23;;;;;;;27.07;17.30;;;;;;;;;;5114298;28;20443;-50
2021/03/23 09:06:53;;;;;;;30.63;16.87;;;;;;;;;;5124508;28;20438;-55
2021/03/23 09:09:35;;;;;;;23.80;15.40;;;;;;;;;;5139094;28;20475;-55
2021/03/23 09:12:06;;;;;;;28.33;18.17;;;;;;;;;;5119708;28;20490;-51
2021/03/23 09:14:36;;;;;;;25.20;16.40;;;;;;;;;;5113804;28;20439;-58
2021/03/23 09:17:28;;;;;;;24.97;16.60;;;;;;;;;;5117922;28;20471;-54
2021/03/23 09:19:56;;;;;;;29.03;17.40;;;;;;;;;;5116520;28;20676;-54
2021/03/23 09:22:44;;;;;;;30.63;19.47;;;;;;;;;;5118268;28;20442;-53
2021/03/23 09:25:29;;;;;;;30.93;16.77;;;;;;;;;;5118193;28;20453;-53
2021/03/23 09:27:59;;;;;;;25.50;17.23;;;;;;;;;;5118617;28;20478;-52
2021/03/23 09:30:51;;;;;;;23.97;15.47;;;;;;;;;;5117743;28;20463;-52
2021/03/23 09:33:28;;;;;;;30.40;17.50;;;;;;;;;;5118019;28;20471;-55
2021/03/23 09:36:34;;;;;;;23.10;15.53;;;;;;;;;;5118433;28;20506;-54
2021/03/23 09:39:16;;;;;;;25.97;17.30;;;;;;;;;;5118288;28;20431;-53
2021/03/23 09:42:15;;;;;;;26.10;17.90;;;;;;;;;;5117738;28;20477;-52
2021/03/23 09:44:45;;;;;;;27.60;18.10;;;;;;;;;;5035798;28;20450;-57
2021/03/23 09:47:28;;;;;;;35.90;18.10;;;;;;;;;;5102617;28;20458;-51
2021/03/23 09:49:55;;;;;;;26.80;15.47;;;;;;;;;;5117785;28;20553;-54
2021/03/23 09:52:28;;;;;;;25.40;16.47;;;;;;;;;;5117378;28;20495;-49
2021/03/23 09:54:57;;;;;;;28.70;19.00;;;;;;;;;;5117351;28;20446;-54
2021/03/23 09:57:27;;;;;;;25.70;16.97;;;;;;;;;;5117733;28;20450;-50
2021/03/23 09:59:57;;;;;;;24.17;14.80;;;;;;;;;;5118105;28;20428;-56
2021/03/23 10:02:28;;;;;;;23.20;16.63;;;;;;;;;;5117016;28;20458;-54
2021/03/23 10:04:56;;;;;;;27.33;15.90;;;;;;;;;;5117713;28;20458;-53
2021/03/23 10:07:28;;;;;;;25.67;15.87;;;;;;;;;;5117923;28;20443;-50
2021/03/23 10:10:13;;;;;;;24.83;15.53;;;;;;;;;;5118682;28;20447;-58
2021/03/23 10:12:47;;;;;;;27.40;15.13;;;;;;;;;;5114176;28;20480;-52
2021/03/23 10:15:27;;;;;;;25.90;15.70;;;;;;;;;;5105809;28;20450;-54
2021/03/23 10:18:08;;;;;;;21.33;14.10;;;;;;;;;;5115540;28;20458;-54
2021/03/23 10:20:35;;;;;;;22.30;14.37;;;;;;;;;;5101320;28;20436;-57
2021/03/23 10:23:02;;;;;;;34.20;14.73;;;;;;;;;;5098889;28;20460;-57
2021/03/23 10:25:34;;;;;;;24.07;16.00;;;;;;;;;;5117994;28;20506;-57
2021/03/23 10:28:07;;;;;;;24.80;15.13;;;;;;;;;;5118043;28;20625;-50
2021/03/23 10:30:40;;;;;;;21.03;15.90;;;;;;;;;;5097864;28;20448;-55
2021/03/23 10:33:25;;;;;;;21.50;15.17;;;;;;;;;;5112411;28;20467;-58
2021/03/23 10:35:55;;;;;;;24.23;14.57;;;;;;;;;;5106848;28;20466;-58
2021/03/23 10:38:57;;;;;;;21.70;14.70;;;;;;;;;;5107998;28;20439;-55
2021/03/23 10:41:43;;;;;;;24.40;15.40;;;;;;;;;;5107952;28;20454;-51
2021/03/23 10:44:20;;;;;;;30.03;15.70;;;;;;;;;;5113153;28;20428;-55
2021/03/23 10:46:52;;;;;;;26.20;17.03;;;;;;;;;;5113175;28;20444;-56
2021/03/23 10:49:29;;;;;;;21.40;15.10;;;;;;;;;;5116181;28;20443;-60
2021/03/23 10:52:00;;;;;;;24.97;16.50;;;;;;;;;;5117494;28;20538;-54
2021/03/23 10:54:30;;;;;;;28.63;15.43;;;;;;;;;;5115149;28;20486;-57
2021/03/23 10:56:58;;;;;;;23.63;14.47;;;;;;;;;;5099103;28;20440;-58
2021/03/23 11:02:32;;;;;;;26.90;16.53;;;;;;;;;;5108958;28;20560;-56
2021/03/23 11:05:00;;;;;;;28.00;18.23;;;;;;;;;;5095505;28;20444;-53
2021/03/23 11:08:03;;;;;;;23.60;14.40;;;;;;;;;;5106920;28;20447;-58
2021/03/23 11:10:33;;;;;;;26.20;14.80;;;;;;;;;;5082406;28;20509;-55
2021/03/23 11:13:09;;;;;;;23.80;14.90;;;;;;;;;;5115908;28;20467;-56
2021/03/23 11:15:42;;;;;;;29.07;17.60;;;;;;;;;;5117205;28;20462;-55
2021/03/23 11:18:14;;;;;;;21.40;13.70;;;;;;;;;;5115370;28;20451;-52
2021/03/23 11:21:05;;;;;;;23.23;15.80;;;;;;;;;;5116977;28;20509;-56
2021/03/23 11:23:37;;;;;;;27.63;16.80;;;;;;;;;;5136312;28;20476;-52
2021/03/23 11:26:04;;;;;;;32.33;18.17;;;;;;;;;;5135619;28;20442;-54
2021/03/23 11:28:32;;;;;;;24.33;15.77;;;;;;;;;;5136674;28;20505;-54
2021/03/23 11:31:01;;;;;;;30.23;16.57;;;;;;;;;;5134858;28;20490;-54
2021/03/23 11:33:29;;;;;;;33.23;16.40;;;;;;;;;;5135447;28;20443;-54
2021/03/23 11:36:06;;;;;;;22.47;16.30;;;;;;;;;;5126890;28;20489;-53
2021/03/23 11:38:33;;;;;;;23.90;16.50;;;;;;;;;;5107244;28;20463;-54
2021/03/23 11:41:01;;;;;;;27.70;16.37;;;;;;;;;;5115381;28;20458;-60
2021/03/23 11:46:38;;;;;;;20.63;14.43;;;;;;;;;;5095108;28;20430;-53
2021/03/23 11:49:09;;;;;;;20.50;14.70;;;;;;;;;;5095650;28;20444;-55
2021/03/23 11:51:44;;;;;;;21.17;14.27;;;;;;;;;;5095003;28;20507;-62
2021/03/23 11:54:13;;;;;;;37.53;17.33;;;;;;;;;;5077886;28;20444;-54
2021/03/23 11:56:45;;;;;;;25.53;15.70;;;;;;;;;;5095830;28;20502;-54
2021/03/23 11:59:37;;;;;;;24.63;15.70;;;;;;;;;;5096412;28;20524;-53
2021/03/23 12:02:08;;;;;;;31.60;14.30;;;;;;;;;;5101774;28;20436;-53
2021/03/23 12:04:38;;;;;;;23.17;16.30;;;;;;;;;;5108555;28;20487;-59
2021/03/23 12:07:15;;;;;;;25.90;16.80;;;;;;;;;;5076168;28;20519;-54
2021/03/23 12:09:46;;;;;;;25.83;16.77;;;;;;;;;;5095065;28;20480;-56
2021/03/23 12:12:17;;;;;;;25.63;15.53;;;;;;;;;;5095326;28;20487;-51
2021/03/23 12:17:49;;;;;;;21.60;14.60;;;;;;;;;;5114971;28;20429;-54
2021/03/23 12:20:19;;;;;;;24.23;16.23;;;;;;;;;;5112888;28;20458;-50
2021/03/23 12:22:52;;;;;;;23.57;16.60;;;;;;;;;;5114953;28;20455;-52
2021/03/23 12:25:24;;;;;;;24.97;15.43;;;;;;;;;;5114418;28;20440;-53
2021/03/23 12:27:51;;;;;;;25.13;15.50;;;;;;;;;;5114593;28;20451;-49
2021/03/23 12:30:33;;;;;;;25.43;17.27;;;;;;;;;;5114829;28;20474;-56
2021/03/23 12:33:00;;;;;;;28.43;18.43;;;;;;;;;;5113904;28;20479;-60
2021/03/23 12:35:29;;;;;;;25.50;16.83;;;;;;;;;;5114350;28;20475;-55
2021/03/23 12:38:04;;;;;;;29.27;18.17;;;;;;;;;;5114583;28;20448;-54
2021/03/23 12:40:31;;;;;;;24.47;16.40;;;;;;;;;;5114953;28;20450;-53
2021/03/23 12:42:58;;;;;;;26.57;16.07;;;;;;;;;;5096644;28;20443;-58
2021/03/23 12:45:42;;;;;;;24.00;16.63;;;;;;;;;;5114247;28;20494;-54
2021/03/23 12:48:11;;;;;;;29.20;16.83;;;;;;;;;;5114412;28;20506;-50
2021/03/23 12:50:39;;;;;;;23.83;15.23;;;;;;;;;;5114804;28;20465;-55
2021/03/23 12:53:19;;;;;;;21.90;16.20;;;;;;;;;;5113598;28;20454;-55
2021/03/23 12:55:48;;;;;;;31.20;21.50;;;;;;;;;;5113876;28;20454;-55
2021/03/23 12:58:17;;;;;;;24.93;16.77;;;;;;;;;;5113826;28;20441;-57
2021/03/23 13:00:56;;;;;;;25.90;17.90;;;;;;;;;;5115153;28;20419;-56
2021/03/23 13:03:24;;;;;;;28.43;17.87;;;;;;;;;;5113731;28;20451;-56
2021/03/23 13:05:56;;;;;;;22.43;16.83;;;;;;;;;;5114223;28;20502;-53
2021/03/23 13:08:28;;;;;;;29.40;17.70;;;;;;;;;;5114188;28;20466;-61
2021/03/23 13:11:01;;;;;;;24.63;17.37;;;;;;;;;;5109571;28;20572;-53
2021/03/23 13:13:34;;;;;;;27.00;15.90;;;;;;;;;;5115908;28;20454;-52
2021/03/23 13:16:01;;;;;;;23.03;17.00;;;;;;;;;;5101670;28;20479;-55
2021/03/23 13:18:30;;;;;;;24.03;15.63;;;;;;;;;;5115555;28;20455;-57
2021/03/23 13:21:07;;;;;;;27.70;16.63;;;;;;;;;;5117947;28;20428;-53
2021/03/23 13:23:36;;;;;;;28.80;17.67;;;;;;;;;;5116233;28;20465;-55
2021/03/23 13:26:04;;;;;;;22.30;16.40;;;;;;;;;;5116285;28;20518;-55
2021/03/23 13:28:49;;;;;;;34.97;19.80;;;;;;;;;;5116316;28;20439;-53
2021/03/23 13:31:16;;;;;;;34.30;18.30;;;;;;;;;;5115556;28;20525;-50
2021/03/23 13:33:47;;;;;;;34.13;19.03;;;;;;;;;;5115715;28;20451;-52
2021/03/23 13:36:34;;;;;;;23.37;16.60;;;;;;;;;;5116264;28;20487;-53
2021/03/23 13:39:04;;;;;;;27.83;16.70;;;;;;;;;;5115523;28;20489;-53
2021/03/23 13:41:31;;;;;;;21.50;18.00;;;;;;;;;;5115782;28;20436;-54
2021/03/23 13:44:19;;;;;;;27.10;18.57;;;;;;;;;;5116501;28;20435;-55
2021/03/23 13:46:54;;;;;;;26.17;17.60;;;;;;;;;;5115976;28;20455;-58
2021/03/23 13:49:21;;;;;;;22.70;18.27;;;;;;;;;;5116293;28;20427;-52
2021/03/23 13:52:05;;;;;;;24.57;17.80;;;;;;;;;;5116379;28;20501;-55
2021/03/23 13:54:33;;;;;;;22.57;17.03;;;;;;;;;;5117759;28;20479;-54
2021/03/23 13:57:00;;;;;;;27.40;18.10;;;;;;;;;;5119814;28;20485;-48
2021/03/23 13:59:49;;;;;;;24.50;18.50;;;;;;;;;;5119579;28;20479;-51
2021/03/23 14:02:20;;;;;;;24.47;16.60;;;;;;;;;;5119100;28;20447;-57
2021/03/23 14:04:50;;;;;;;28.50;18.10;;;;;;;;;;5118272;28;20488;-56
2021/03/23 14:07:43;;;;;;;24.60;16.23;;;;;;;;;;5118380;28;20458;-57
2021/03/23 14:10:13;;;;;;;23.03;15.20;;;;;;;;;;5118161;28;20444;-54
2021/03/23 14:12:43;;;;;;;23.30;15.37;;;;;;;;;;5118814;28;20471;-51
2021/03/23 14:15:21;;;;;;;33.13;15.93;;;;;;;;;;5118627;28;20491;-60
2021/03/23 14:17:48;;;;;;;25.13;15.73;;;;;;;;;;5116562;28;20478;-58
2021/03/23 14:20:16;;;;;;;29.67;17.70;;;;;;;;;;5119030;28;20474;-51
2021/03/23 14:22:43;;;;;;;20.20;15.30;;;;;;;;;;5118262;28;20463;-47
2021/03/23 14:25:28;;;;;;;28.03;17.57;;;;;;;;;;5117832;28;20431;-51
2021/03/23 14:28:17;;;;;;;27.60;20.40;;;;;;;;;;5117136;28;20478;-53
2021/03/23 14:30:45;;;;;;;30.63;19.97;;;;;;;;;;5116910;28;20451;-54
2021/03/23 14:33:12;;;;;;;29.50;19.87;;;;;;;;;;5116708;28;20474;-54
2021/03/23 14:36:05;;;;;;;26.73;19.00;;;;;;;;;;5116584;28;20522;-58
2021/03/23 14:38:35;;;;;;;26.13;18.87;;;;;;;;;;5117352;28;20439;-46
2021/03/23 14:41:05;;;;;;;25.47;16.70;;;;;;;;;;5118499;28;20518;-56
2021/03/23 14:43:40;;;;;;;25.97;18.60;;;;;;;;;;5117402;28;20477;-56
2021/03/23 14:46:39;;;;;;;31.00;18.80;;;;;;;;;;5118050;28;20435;-50
2021/03/23 14:49:10;;;;;;;27.10;17.90;;;;;;;;;;5118779;28;20420;-53
2021/03/23 14:51:41;;;;;;;23.47;16.80;;;;;;;;;;5118163;28;20486;-52
2021/03/23 14:54:10;;;;;;;26.03;17.73;;;;;;;;;;5118010;28;20488;-55
2021/03/23 14:56:43;;;;;;;25.23;18.77;;;;;;;;;;5117431;28;20451;-58
2021/03/23 14:59:27;;;;;;;27.63;19.83;;;;;;;;;;5115234;28;20559;-55
2021/03/23 15:01:55;;;;;;;23.30;18.60;;;;;;;;;;5099539;28;20459;-53
2021/03/23 15:04:24;;;;;;;26.93;18.07;;;;;;;;;;5113098;28;20466;-53
2021/03/23 15:07:24;;;;;;;27.00;19.10;;;;;;;;;;5118135;28;20466;-51
2021/03/23 15:09:51;;;;;;;29.27;18.63;;;;;;;;;;5115900;28;20482;-54
2021/03/23 15:12:24;;;;;;;25.00;18.00;;;;;;;;;;5117640;28;20482;-48
2021/03/23 15:15:01;;;;;;;27.60;16.87;;;;;;;;;;5097182;28;20448;-53
2021/03/23 15:17:27;;;;;;;26.17;17.20;;;;;;;;;;5111368;28;20435;-55
2021/03/23 15:20:24;;;;;;;23.13;17.20;;;;;;;;;;5117278;28;20459;-59
2021/03/23 15:22:51;;;;;;;29.80;18.00;;;;;;;;;;5117257;28;20677;-51
2021/03/23 15:25:22;;;;;;;28.03;17.40;;;;;;;;;;5127005;28;20454;-54